Terminal Aerodrome Forecast
Issued by NWS Bismarck, ND

Home | Current Version | Previous Version | Graphics & Text | Print | Product List | Glossary On
Versions: 1 2 3 4 5 6 7 8 9 10 11 12 13 14 15 16 17
000
FTUS43 KBIS 191732
TAFISN
TAF
KISN 191732Z 1918/2018 29016G24KT P6SM SCT080
     FM192200 33016G25KT P6SM FEW080 SCT200
     FM200200 36009KT P6SM FEW080
     FM201100 VRB03KT P6SM SCT200=

USA.gov is the U.S. government's official web portal to all federal, state and local government web resources and services.